sensor_id;sensor_type;location;lat;lon;timestamp;P1;durP1;ratioP1;P2;durP2;ratioP2
21148;SDS011;10732;51.472;6.466;2023-06-01T00:01:40;12.95;;;8.63;;
21148;SDS011;10732;51.472;6.466;2023-06-01T00:04:06;12.57;;;8.75;;
21148;SDS011;10732;51.472;6.466;2023-06-01T00:06:32;14.23;;;9.18;;
21148;SDS011;10732;51.472;6.466;2023-06-01T00:08:58;14.20;;;9.13;;
21148;SDS011;10732;51.472;6.466;2023-06-01T00:11:24;13.88;;;8.88;;
21148;SDS011;10732;51.472;6.466;2023-06-01T00:13:50;17.17;;;9.55;;
21148;SDS011;10732;51.472;6.466;2023-06-01T00:16:16;15.90;;;9.50;;
21148;SDS011;10732;51.472;6.466;2023-06-01T00:18:42;12.63;;;8.82;;
21148;SDS011;10732;51.472;6.466;2023-06-01T00:21:08;13.15;;;9.07;;
21148;SDS011;10732;51.472;6.466;2023-06-01T00:23:34;13.73;;;9.57;;
21148;SDS011;10732;51.472;6.466;2023-06-01T00:25:59;14.02;;;9.40;;
21148;SDS011;10732;51.472;6.466;2023-06-01T00:28:25;11.98;;;8.95;;
21148;SDS011;10732;51.472;6.466;2023-06-01T00:30:51;14.00;;;9.55;;
21148;SDS011;10732;51.472;6.466;2023-06-01T00:33:18;16.48;;;10.55;;
21148;SDS011;10732;51.472;6.466;2023-06-01T00:35:44;15.85;;;10.15;;
21148;SDS011;10732;51.472;6.466;2023-06-01T00:38:09;17.02;;;10.18;;
21148;SDS011;10732;51.472;6.466;2023-06-01T00:40:35;16.40;;;10.48;;
21148;SDS011;10732;51.472;6.466;2023-06-01T00:43:01;15.07;;;10.55;;
21148;SDS011;10732;51.472;6.466;2023-06-01T00:45:26;17.13;;;11.05;;
21148;SDS011;10732;51.472;6.466;2023-06-01T00:47:52;19.13;;;10.73;;
21148;SDS011;10732;51.472;6.466;2023-06-01T00:50:18;22.40;;;11.55;;
21148;SDS011;10732;51.472;6.466;2023-06-01T00:52:44;16.52;;;11.13;;
21148;SDS011;10732;51.472;6.466;2023-06-01T00:55:12;21.02;;;11.60;;
21148;SDS011;10732;51.472;6.466;2023-06-01T00:57:42;20.98;;;11.25;;
21148;SDS011;10732;51.472;6.466;2023-06-01T01:00:08;18.50;;;12.13;;
21148;SDS011;10732;51.472;6.466;2023-06-01T01:02:35;15.32;;;11.18;;
21148;SDS011;10732;51.472;6.466;2023-06-01T01:05:04;23.48;;;12.63;;
21148;SDS011;10732;51.472;6.466;2023-06-01T01:15:38;20.08;;;12.45;;
21148;SDS011;10732;51.472;6.466;2023-06-01T01:18:11;19.88;;;12.80;;
21148;SDS011;10732;51.472;6.466;2023-06-01T01:20:43;18.13;;;12.68;;
21148;SDS011;10732;51.472;6.466;2023-06-01T01:29:20;18.73;;;12.95;;
21148;SDS011;10732;51.472;6.466;2023-06-01T01:31:47;20.88;;;13.13;;
21148;SDS011;10732;51.472;6.466;2023-06-01T01:34:15;18.58;;;12.80;;
21148;SDS011;10732;51.472;6.466;2023-06-01T01:36:42;21.70;;;13.23;;
21148;SDS011;10732;51.472;6.466;2023-06-01T01:39:08;22.30;;;14.00;;
21148;SDS011;10732;51.472;6.466;2023-06-01T01:41:33;20.67;;;13.65;;
21148;SDS011;10732;51.472;6.466;2023-06-01T01:43:59;24.38;;;14.13;;
21148;SDS011;10732;51.472;6.466;2023-06-01T01:46:25;20.30;;;13.70;;
21148;SDS011;10732;51.472;6.466;2023-06-01T01:51:40;22.60;;;15.05;;
21148;SDS011;10732;51.472;6.466;2023-06-01T01:54:14;20.40;;;15.07;;
21148;SDS011;10732;51.472;6.466;2023-06-01T01:56:42;23.08;;;15.60;;
21148;SDS011;10732;51.472;6.466;2023-06-01T01:59:09;25.30;;;15.57;;
21148;SDS011;10732;51.472;6.466;2023-06-01T02:01:35;23.77;;;15.50;;
21148;SDS011;10732;51.472;6.466;2023-06-01T02:04:02;22.45;;;15.60;;
21148;SDS011;10732;51.472;6.466;2023-06-01T02:06:29;28.08;;;16.02;;
21148;SDS011;10732;51.472;6.466;2023-06-01T02:08:55;25.42;;;16.92;;
21148;SDS011;10732;51.472;6.466;2023-06-01T02:11:21;25.15;;;16.30;;
21148;SDS011;10732;51.472;6.466;2023-06-01T02:13:47;28.45;;;17.60;;
21148;SDS011;10732;51.472;6.466;2023-06-01T02:16:13;27.27;;;16.27;;
21148;SDS011;10732;51.472;6.466;2023-06-01T02:18:38;26.02;;;16.88;;
21148;SDS011;10732;51.472;6.466;2023-06-01T02:21:06;27.50;;;17.00;;
21148;SDS011;10732;51.472;6.466;2023-06-01T02:23:33;26.33;;;16.95;;
21148;SDS011;10732;51.472;6.466;2023-06-01T02:26:00;28.50;;;17.27;;
21148;SDS011;10732;51.472;6.466;2023-06-01T02:28:25;32.20;;;17.70;;
21148;SDS011;10732;51.472;6.466;2023-06-01T02:30:51;25.70;;;17.20;;
21148;SDS011;10732;51.472;6.466;2023-06-01T02:33:16;31.98;;;16.65;;
21148;SDS011;10732;51.472;6.466;2023-06-01T02:35:42;32.17;;;17.85;;
21148;SDS011;10732;51.472;6.466;2023-06-01T02:38:07;25.77;;;16.10;;
21148;SDS011;10732;51.472;6.466;2023-06-01T02:40:33;28.50;;;16.80;;
21148;SDS011;10732;51.472;6.466;2023-06-01T02:42:58;26.52;;;16.83;;
21148;SDS011;10732;51.472;6.466;2023-06-01T02:45:25;29.65;;;17.27;;
21148;SDS011;10732;51.472;6.466;2023-06-01T02:47:51;24.90;;;16.65;;
21148;SDS011;10732;51.472;6.466;2023-06-01T02:50:16;24.83;;;16.95;;
21148;SDS011;10732;51.472;6.466;2023-06-01T02:52:42;24.27;;;16.23;;
21148;SDS011;10732;51.472;6.466;2023-06-01T02:55:08;28.35;;;16.17;;
21148;SDS011;10732;51.472;6.466;2023-06-01T02:57:34;29.88;;;16.52;;
21148;SDS011;10732;51.472;6.466;2023-06-01T02:59:59;30.50;;;16.88;;
21148;SDS011;10732;51.472;6.466;2023-06-01T03:02:25;24.65;;;15.82;;
21148;SDS011;10732;51.472;6.466;2023-06-01T03:04:51;22.13;;;15.35;;
21148;SDS011;10732;51.472;6.466;2023-06-01T03:07:17;19.92;;;14.57;;
21148;SDS011;10732;51.472;6.466;2023-06-01T03:09:43;22.13;;;15.13;;
21148;SDS011;10732;51.472;6.466;2023-06-01T03:12:09;22.65;;;14.80;;
21148;SDS011;10732;51.472;6.466;2023-06-01T03:14:35;20.52;;;14.27;;
21148;SDS011;10732;51.472;6.466;2023-06-01T03:17:01;23.42;;;14.95;;
21148;SDS011;10732;51.472;6.466;2023-06-01T03:19:26;22.50;;;14.00;;
21148;SDS011;10732;51.472;6.466;2023-06-01T03:21:52;21.58;;;14.10;;
21148;SDS011;10732;51.472;6.466;2023-06-01T03:24:18;25.17;;;13.73;;
21148;SDS011;10732;51.472;6.466;2023-06-01T03:26:43;20.88;;;13.35;;
21148;SDS011;10732;51.472;6.466;2023-06-01T03:29:09;20.38;;;13.15;;
21148;SDS011;10732;51.472;6.466;2023-06-01T03:31:34;20.63;;;13.00;;
21148;SDS011;10732;51.472;6.466;2023-06-01T03:34:01;19.73;;;12.80;;
21148;SDS011;10732;51.472;6.466;2023-06-01T03:36:26;21.35;;;13.48;;
21148;SDS011;10732;51.472;6.466;2023-06-01T03:38:52;17.92;;;13.07;;
21148;SDS011;10732;51.472;6.466;2023-06-01T03:41:18;17.23;;;13.18;;
21148;SDS011;10732;51.472;6.466;2023-06-01T03:43:44;21.75;;;13.48;;
21148;SDS011;10732;51.472;6.466;2023-06-01T03:46:10;20.05;;;13.75;;
21148;SDS011;10732;51.472;6.466;2023-06-01T03:48:36;19.23;;;13.45;;
21148;SDS011;10732;51.472;6.466;2023-06-01T03:51:01;21.55;;;13.38;;
21148;SDS011;10732;51.472;6.466;2023-06-01T03:53:27;17.88;;;12.45;;
21148;SDS011;10732;51.472;6.466;2023-06-01T03:55:52;17.75;;;12.18;;
21148;SDS011;10732;51.472;6.466;2023-06-01T03:58:19;18.08;;;12.32;;
21148;SDS011;10732;51.472;6.466;2023-06-01T04:00:45;16.15;;;11.82;;
21148;SDS011;10732;51.472;6.466;2023-06-01T04:03:11;22.02;;;12.70;;
21148;SDS011;10732;51.472;6.466;2023-06-01T04:05:38;19.23;;;12.35;;
21148;SDS011;10732;51.472;6.466;2023-06-01T04:08:03;19.45;;;11.90;;
21148;SDS011;10732;51.472;6.466;2023-06-01T04:10:29;17.08;;;12.20;;
21148;SDS011;10732;51.472;6.466;2023-06-01T04:12:55;16.63;;;11.38;;
21148;SDS011;10732;51.472;6.466;2023-06-01T04:15:22;20.65;;;11.93;;
21148;SDS011;10732;51.472;6.466;2023-06-01T04:17:47;18.15;;;11.88;;
21148;SDS011;10732;51.472;6.466;2023-06-01T04:20:14;16.92;;;11.75;;
21148;SDS011;10732;51.472;6.466;2023-06-01T04:22:41;19.48;;;11.80;;
21148;SDS011;10732;51.472;6.466;2023-06-01T04:25:16;16.55;;;11.75;;
21148;SDS011;10732;51.472;6.466;2023-06-01T04:27:48;18.48;;;10.98;;
21148;SDS011;10732;51.472;6.466;2023-06-01T04:30:16;14.40;;;11.07;;
21148;SDS011;10732;51.472;6.466;2023-06-01T04:32:42;17.52;;;11.77;;
21148;SDS011;10732;51.472;6.466;2023-06-01T04:35:09;15.52;;;10.90;;
21148;SDS011;10732;51.472;6.466;2023-06-01T04:37:36;15.35;;;11.18;;
21148;SDS011;10732;51.472;6.466;2023-06-01T04:40:04;17.02;;;10.73;;
21148;SDS011;10732;51.472;6.466;2023-06-01T04:42:34;16.48;;;11.32;;
21148;SDS011;10732;51.472;6.466;2023-06-01T04:45:03;16.77;;;11.15;;
21148;SDS011;10732;51.472;6.466;2023-06-01T04:47:31;17.55;;;11.25;;
21148;SDS011;10732;51.472;6.466;2023-06-01T04:49:57;15.25;;;10.82;;
21148;SDS011;10732;51.472;6.466;2023-06-01T04:52:23;19.52;;;11.07;;
21148;SDS011;10732;51.472;6.466;2023-06-01T04:54:49;14.73;;;9.88;;
21148;SDS011;10732;51.472;6.466;2023-06-01T04:57:15;16.23;;;9.70;;
21148;SDS011;10732;51.472;6.466;2023-06-01T04:59:41;13.85;;;9.20;;
21148;SDS011;10732;51.472;6.466;2023-06-01T05:02:07;15.13;;;9.65;;
21148;SDS011;10732;51.472;6.466;2023-06-01T05:04:32;15.10;;;9.77;;
21148;SDS011;10732;51.472;6.466;2023-06-01T05:06:58;16.67;;;10.35;;
21148;SDS011;10732;51.472;6.466;2023-06-01T05:09:24;19.80;;;9.63;;
21148;SDS011;10732;51.472;6.466;2023-06-01T05:11:50;14.57;;;10.10;;
21148;SDS011;10732;51.472;6.466;2023-06-01T05:14:15;15.63;;;10.55;;
21148;SDS011;10732;51.472;6.466;2023-06-01T05:16:41;14.90;;;10.45;;
21148;SDS011;10732;51.472;6.466;2023-06-01T05:19:07;15.75;;;9.55;;
21148;SDS011;10732;51.472;6.466;2023-06-01T05:21:32;15.43;;;10.32;;
21148;SDS011;10732;51.472;6.466;2023-06-01T05:23:58;16.00;;;10.52;;
21148;SDS011;10732;51.472;6.466;2023-06-01T05:26:23;15.93;;;10.45;;
21148;SDS011;10732;51.472;6.466;2023-06-01T05:28:50;14.18;;;10.63;;
21148;SDS011;10732;51.472;6.466;2023-06-01T05:31:15;17.73;;;10.48;;
21148;SDS011;10732;51.472;6.466;2023-06-01T05:33:41;14.48;;;9.68;;
21148;SDS011;10732;51.472;6.466;2023-06-01T05:36:07;14.63;;;9.85;;
21148;SDS011;10732;51.472;6.466;2023-06-01T05:38:32;13.90;;;10.05;;
21148;SDS011;10732;51.472;6.466;2023-06-01T05:40:58;14.13;;;9.93;;
21148;SDS011;10732;51.472;6.466;2023-06-01T05:43:24;15.13;;;10.25;;
21148;SDS011;10732;51.472;6.466;2023-06-01T05:45:49;15.43;;;9.77;;
21148;SDS011;10732;51.472;6.466;2023-06-01T05:48:15;14.57;;;9.68;;
21148;SDS011;10732;51.472;6.466;2023-06-01T05:50:41;15.75;;;10.13;;
21148;SDS011;10732;51.472;6.466;2023-06-01T05:53:07;13.75;;;9.45;;
21148;SDS011;10732;51.472;6.466;2023-06-01T05:55:33;11.27;;;8.90;;
21148;SDS011;10732;51.472;6.466;2023-06-01T05:57:59;16.65;;;10.15;;
21148;SDS011;10732;51.472;6.466;2023-06-01T06:00:24;15.05;;;10.40;;
21148;SDS011;10732;51.472;6.466;2023-06-01T06:02:50;15.93;;;9.93;;
21148;SDS011;10732;51.472;6.466;2023-06-01T06:05:16;18.63;;;10.50;;
21148;SDS011;10732;51.472;6.466;2023-06-01T06:07:41;11.52;;;8.40;;
21148;SDS011;10732;51.472;6.466;2023-06-01T06:10:07;16.05;;;9.05;;
21148;SDS011;10732;51.472;6.466;2023-06-01T06:12:33;13.07;;;9.10;;
21148;SDS011;10732;51.472;6.466;2023-06-01T06:14:58;12.82;;;9.00;;
21148;SDS011;10732;51.472;6.466;2023-06-01T06:17:24;14.20;;;9.63;;
21148;SDS011;10732;51.472;6.466;2023-06-01T06:19:50;14.70;;;8.98;;
21148;SDS011;10732;51.472;6.466;2023-06-01T06:22:15;16.95;;;10.93;;
21148;SDS011;10732;51.472;6.466;2023-06-01T06:24:41;15.40;;;11.27;;
21148;SDS011;10732;51.472;6.466;2023-06-01T06:27:08;15.30;;;11.38;;
21148;SDS011;10732;51.472;6.466;2023-06-01T06:29:34;15.77;;;10.75;;
21148;SDS011;10732;51.472;6.466;2023-06-01T06:31:59;15.70;;;9.88;;
21148;SDS011;10732;51.472;6.466;2023-06-01T06:34:25;11.73;;;9.35;;
21148;SDS011;10732;51.472;6.466;2023-06-01T06:36:50;17.20;;;9.77;;
21148;SDS011;10732;51.472;6.466;2023-06-01T06:39:17;14.50;;;9.18;;
21148;SDS011;10732;51.472;6.466;2023-06-01T06:41:43;13.32;;;9.35;;
21148;SDS011;10732;51.472;6.466;2023-06-01T06:44:09;14.32;;;10.05;;
21148;SDS011;10732;51.472;6.466;2023-06-01T06:46:35;18.10;;;11.82;;
21148;SDS011;10732;51.472;6.466;2023-06-01T06:49:00;18.92;;;11.48;;
21148;SDS011;10732;51.472;6.466;2023-06-01T06:51:26;18.17;;;10.82;;
21148;SDS011;10732;51.472;6.466;2023-06-01T06:53:51;15.70;;;10.43;;
21148;SDS011;10732;51.472;6.466;2023-06-01T06:56:17;14.55;;;10.70;;
21148;SDS011;10732;51.472;6.466;2023-06-01T06:58:43;15.07;;;9.35;;
21148;SDS011;10732;51.472;6.466;2023-06-01T07:01:10;13.68;;;8.32;;
21148;SDS011;10732;51.472;6.466;2023-06-01T07:03:35;12.32;;;8.07;;
21148;SDS011;10732;51.472;6.466;2023-06-01T07:06:03;10.95;;;7.85;;
21148;SDS011;10732;51.472;6.466;2023-06-01T07:08:29;12.35;;;8.98;;
21148;SDS011;10732;51.472;6.466;2023-06-01T07:10:59;10.20;;;8.43;;
21148;SDS011;10732;51.472;6.466;2023-06-01T07:13:25;11.75;;;8.90;;
21148;SDS011;10732;51.472;6.466;2023-06-01T07:15:52;11.70;;;8.20;;
21148;SDS011;10732;51.472;6.466;2023-06-01T07:18:18;15.07;;;7.90;;
21148;SDS011;10732;51.472;6.466;2023-06-01T07:20:43;11.60;;;6.95;;
21148;SDS011;10732;51.472;6.466;2023-06-01T07:23:09;13.10;;;7.70;;
21148;SDS011;10732;51.472;6.466;2023-06-01T07:25:37;8.38;;;6.60;;
21148;SDS011;10732;51.472;6.466;2023-06-01T07:28:03;10.57;;;6.93;;
21148;SDS011;10732;51.472;6.466;2023-06-01T07:30:32;10.63;;;6.60;;
21148;SDS011;10732;51.472;6.466;2023-06-01T07:32:58;8.93;;;6.95;;
21148;SDS011;10732;51.472;6.466;2023-06-01T07:35:24;11.40;;;6.97;;
21148;SDS011;10732;51.472;6.466;2023-06-01T07:37:50;12.23;;;7.20;;
21148;SDS011;10732;51.472;6.466;2023-06-01T07:40:15;9.38;;;6.60;;
21148;SDS011;10732;51.472;6.466;2023-06-01T07:42:41;10.68;;;7.15;;
21148;SDS011;10732;51.472;6.466;2023-06-01T07:45:07;12.85;;;7.38;;
21148;SDS011;10732;51.472;6.466;2023-06-01T07:47:34;10.10;;;7.00;;
21148;SDS011;10732;51.472;6.466;2023-06-01T07:50:00;11.15;;;7.13;;
21148;SDS011;10732;51.472;6.466;2023-06-01T07:52:25;8.73;;;6.85;;
21148;SDS011;10732;51.472;6.466;2023-06-01T07:54:51;11.38;;;6.75;;
21148;SDS011;10732;51.472;6.466;2023-06-01T07:57:17;12.50;;;7.13;;
21148;SDS011;10732;51.472;6.466;2023-06-01T07:59:42;12.60;;;7.18;;
21148;SDS011;10732;51.472;6.466;2023-06-01T08:02:09;12.13;;;7.78;;
21148;SDS011;10732;51.472;6.466;2023-06-01T08:04:36;12.60;;;7.22;;
21148;SDS011;10732;51.472;6.466;2023-06-01T08:07:04;10.25;;;6.82;;
21148;SDS011;10732;51.472;6.466;2023-06-01T08:09:31;11.48;;;6.97;;
21148;SDS011;10732;51.472;6.466;2023-06-01T08:11:57;10.32;;;6.90;;
21148;SDS011;10732;51.472;6.466;2023-06-01T08:14:23;11.80;;;6.95;;
21148;SDS011;10732;51.472;6.466;2023-06-01T08:16:48;10.43;;;6.63;;
21148;SDS011;10732;51.472;6.466;2023-06-01T08:19:16;11.35;;;6.57;;
21148;SDS011;10732;51.472;6.466;2023-06-01T08:21:42;12.95;;;6.60;;
21148;SDS011;10732;51.472;6.466;2023-06-01T08:24:08;11.18;;;7.13;;
21148;SDS011;10732;51.472;6.466;2023-06-01T08:26:34;14.32;;;7.00;;
21148;SDS011;10732;51.472;6.466;2023-06-01T08:29:02;10.75;;;6.80;;
21148;SDS011;10732;51.472;6.466;2023-06-01T08:31:28;9.18;;;6.18;;
21148;SDS011;10732;51.472;6.466;2023-06-01T08:33:54;11.80;;;7.32;;
21148;SDS011;10732;51.472;6.466;2023-06-01T08:36:20;12.52;;;7.03;;
21148;SDS011;10732;51.472;6.466;2023-06-01T08:38:46;12.55;;;6.60;;
21148;SDS011;10732;51.472;6.466;2023-06-01T08:44:36;12.23;;;6.97;;
21148;SDS011;10732;51.472;6.466;2023-06-01T08:47:05;10.23;;;5.93;;
21148;SDS011;10732;51.472;6.466;2023-06-01T08:49:32;10.07;;;6.88;;
21148;SDS011;10732;51.472;6.466;2023-06-01T08:52:20;10.00;;;6.38;;
21148;SDS011;10732;51.472;6.466;2023-06-01T08:54:46;11.18;;;7.18;;
21148;SDS011;10732;51.472;6.466;2023-06-01T08:57:12;9.23;;;6.38;;
21148;SDS011;10732;51.472;6.466;2023-06-01T08:59:38;12.75;;;7.50;;
21148;SDS011;10732;51.472;6.466;2023-06-01T09:02:05;11.95;;;6.18;;
21148;SDS011;10732;51.472;6.466;2023-06-01T09:04:34;11.95;;;7.43;;
21148;SDS011;10732;51.472;6.466;2023-06-01T09:07:02;12.18;;;6.95;;
21148;SDS011;10732;51.472;6.466;2023-06-01T09:09:28;9.35;;;6.85;;
21148;SDS011;10732;51.472;6.466;2023-06-01T09:14:43;11.88;;;6.93;;
21148;SDS011;10732;51.472;6.466;2023-06-01T09:17:12;12.40;;;6.85;;
21148;SDS011;10732;51.472;6.466;2023-06-01T09:19:42;9.30;;;6.45;;
21148;SDS011;10732;51.472;6.466;2023-06-01T09:22:11;13.63;;;6.95;;
21148;SDS011;10732;51.472;6.466;2023-06-01T09:24:38;11.05;;;7.68;;
21148;SDS011;10732;51.472;6.466;2023-06-01T09:27:06;10.60;;;7.30;;
21148;SDS011;10732;51.472;6.466;2023-06-01T09:29:31;12.35;;;7.72;;
21148;SDS011;10732;51.472;6.466;2023-06-01T09:31:58;12.57;;;7.25;;
21148;SDS011;10732;51.472;6.466;2023-06-01T09:34:25;10.93;;;7.32;;
21148;SDS011;10732;51.472;6.466;2023-06-01T09:36:52;12.77;;;7.35;;
21148;SDS011;10732;51.472;6.466;2023-06-01T09:39:19;11.77;;;7.10;;
21148;SDS011;10732;51.472;6.466;2023-06-01T09:44:26;12.20;;;7.95;;
21148;SDS011;10732;51.472;6.466;2023-06-01T09:49:41;10.82;;;7.90;;
21148;SDS011;10732;51.472;6.466;2023-06-01T09:54:41;12.15;;;8.10;;
21148;SDS011;10732;51.472;6.466;2023-06-01T09:57:11;12.18;;;7.40;;
21148;SDS011;10732;51.472;6.466;2023-06-01T09:59:41;10.32;;;7.13;;
21148;SDS011;10732;51.472;6.466;2023-06-01T10:02:12;12.07;;;8.38;;
21148;SDS011;10732;51.472;6.466;2023-06-01T10:04:39;12.85;;;8.00;;
21148;SDS011;10732;51.472;6.466;2023-06-01T10:07:06;9.95;;;7.10;;
21148;SDS011;10732;51.472;6.466;2023-06-01T10:09:36;11.98;;;7.00;;
21148;SDS011;10732;51.472;6.466;2023-06-01T10:12:04;12.18;;;7.57;;
21148;SDS011;10732;51.472;6.466;2023-06-01T10:14:30;10.95;;;7.38;;
21148;SDS011;10732;51.472;6.466;2023-06-01T10:16:56;11.93;;;8.27;;
21148;SDS011;10732;51.472;6.466;2023-06-01T10:19:23;11.20;;;7.72;;
21148;SDS011;10732;51.472;6.466;2023-06-01T10:21:48;10.38;;;7.43;;
21148;SDS011;10732;51.472;6.466;2023-06-01T10:24:16;11.90;;;7.82;;
21148;SDS011;10732;51.472;6.466;2023-06-01T10:26:45;12.38;;;7.97;;
21148;SDS011;10732;51.472;6.466;2023-06-01T10:29:31;13.55;;;8.60;;
21148;SDS011;10732;51.472;6.466;2023-06-01T10:31:58;13.07;;;8.50;;
21148;SDS011;10732;51.472;6.466;2023-06-01T10:34:43;10.27;;;8.18;;
21148;SDS011;10732;51.472;6.466;2023-06-01T10:37:10;17.65;;;8.35;;
21148;SDS011;10732;51.472;6.466;2023-06-01T10:39:36;11.50;;;7.95;;
21148;SDS011;10732;51.472;6.466;2023-06-01T10:47:03;10.32;;;7.28;;
21148;SDS011;10732;51.472;6.466;2023-06-01T10:52:27;10.90;;;7.45;;
21148;SDS011;10732;51.472;6.466;2023-06-01T10:54:54;12.15;;;8.00;;
21148;SDS011;10732;51.472;6.466;2023-06-01T10:57:23;11.73;;;8.48;;
21148;SDS011;10732;51.472;6.466;2023-06-01T11:02:54;12.20;;;8.25;;
21148;SDS011;10732;51.472;6.466;2023-06-01T11:10:55;12.02;;;8.80;;
21148;SDS011;10732;51.472;6.466;2023-06-01T11:13:37;13.32;;;8.27;;
21148;SDS011;10732;51.472;6.466;2023-06-01T11:18:53;11.35;;;8.23;;
21148;SDS011;10732;51.472;6.466;2023-06-01T11:21:28;12.90;;;7.43;;
21148;SDS011;10732;51.472;6.466;2023-06-01T11:23:59;15.70;;;9.50;;
21148;SDS011;10732;51.472;6.466;2023-06-01T11:26:29;13.68;;;9.10;;
21148;SDS011;10732;51.472;6.466;2023-06-01T11:29:07;15.23;;;8.82;;
21148;SDS011;10732;51.472;6.466;2023-06-01T11:31:40;13.50;;;9.40;;
21148;SDS011;10732;51.472;6.466;2023-06-01T11:34:11;18.63;;;9.85;;
21148;SDS011;10732;51.472;6.466;2023-06-01T11:36:38;15.73;;;9.85;;
21148;SDS011;10732;51.472;6.466;2023-06-01T11:39:05;13.35;;;9.40;;
21148;SDS011;10732;51.472;6.466;2023-06-01T11:41:35;12.32;;;8.52;;
21148;SDS011;10732;51.472;6.466;2023-06-01T11:44:01;14.00;;;9.18;;
21148;SDS011;10732;51.472;6.466;2023-06-01T11:46:27;15.77;;;9.73;;
21148;SDS011;10732;51.472;6.466;2023-06-01T11:49:00;16.95;;;9.35;;
21148;SDS011;10732;51.472;6.466;2023-06-01T11:51:28;14.20;;;9.52;;
21148;SDS011;10732;51.472;6.466;2023-06-01T11:53:55;15.50;;;9.02;;
21148;SDS011;10732;51.472;6.466;2023-06-01T11:56:27;16.58;;;9.75;;
21148;SDS011;10732;51.472;6.466;2023-06-01T11:59:00;13.25;;;9.65;;
21148;SDS011;10732;51.472;6.466;2023-06-01T12:01:27;16.00;;;9.57;;
21148;SDS011;10732;51.472;6.466;2023-06-01T12:03:53;16.38;;;9.55;;
21148;SDS011;10732;51.472;6.466;2023-06-01T12:06:22;16.38;;;10.45;;
21148;SDS011;10732;51.472;6.466;2023-06-01T12:08:50;13.07;;;8.52;;
21148;SDS011;10732;51.472;6.466;2023-06-01T12:11:18;15.68;;;9.25;;
21148;SDS011;10732;51.472;6.466;2023-06-01T12:13:46;12.38;;;8.68;;
21148;SDS011;10732;51.472;6.466;2023-06-01T12:16:13;10.23;;;8.55;;
21148;SDS011;10732;51.472;6.466;2023-06-01T12:18:41;11.52;;;8.07;;
21148;SDS011;10732;51.472;6.466;2023-06-01T12:21:10;10.43;;;7.40;;
21148;SDS011;10732;51.472;6.466;2023-06-01T12:23:36;13.82;;;7.20;;
21148;SDS011;10732;51.472;6.466;2023-06-01T12:26:02;14.13;;;8.05;;
21148;SDS011;10732;51.472;6.466;2023-06-01T12:28:28;10.52;;;8.25;;
21148;SDS011;10732;51.472;6.466;2023-06-01T12:31:11;14.27;;;8.18;;
21148;SDS011;10732;51.472;6.466;2023-06-01T12:33:38;15.75;;;9.05;;
21148;SDS011;10732;51.472;6.466;2023-06-01T12:36:04;12.40;;;7.97;;
21148;SDS011;10732;51.472;6.466;2023-06-01T12:38:35;15.50;;;7.80;;
21148;SDS011;10732;51.472;6.466;2023-06-01T12:41:17;13.63;;;8.02;;
21148;SDS011;10732;51.472;6.466;2023-06-01T12:43:44;13.43;;;8.20;;
21148;SDS011;10732;51.472;6.466;2023-06-01T12:46:17;12.60;;;8.15;;
21148;SDS011;10732;51.472;6.466;2023-06-01T12:48:46;12.52;;;8.60;;
21148;SDS011;10732;51.472;6.466;2023-06-01T12:51:13;13.65;;;7.88;;
21148;SDS011;10732;51.472;6.466;2023-06-01T12:53:39;12.15;;;8.48;;
21148;SDS011;10732;51.472;6.466;2023-06-01T12:56:07;15.57;;;8.23;;
21148;SDS011;10732;51.472;6.466;2023-06-01T12:58:32;16.73;;;8.55;;
21148;SDS011;10732;51.472;6.466;2023-06-01T13:00:58;11.20;;;8.43;;
21148;SDS011;10732;51.472;6.466;2023-06-01T13:03:24;13.02;;;8.82;;
21148;SDS011;10732;51.472;6.466;2023-06-01T13:05:49;13.20;;;8.20;;
21148;SDS011;10732;51.472;6.466;2023-06-01T13:08:16;13.07;;;8.23;;
21148;SDS011;10732;51.472;6.466;2023-06-01T13:10:42;12.80;;;7.93;;
21148;SDS011;10732;51.472;6.466;2023-06-01T13:13:08;13.35;;;8.18;;
21148;SDS011;10732;51.472;6.466;2023-06-01T13:15:35;11.90;;;8.45;;
21148;SDS011;10732;51.472;6.466;2023-06-01T13:18:08;10.50;;;7.53;;
21148;SDS011;10732;51.472;6.466;2023-06-01T13:20:34;11.93;;;7.95;;
21148;SDS011;10732;51.472;6.466;2023-06-01T13:23:00;15.52;;;9.02;;
21148;SDS011;10732;51.472;6.466;2023-06-01T13:25:26;14.13;;;8.70;;
21148;SDS011;10732;51.472;6.466;2023-06-01T13:27:52;10.40;;;7.53;;
21148;SDS011;10732;51.472;6.466;2023-06-01T13:30:18;13.25;;;7.63;;
21148;SDS011;10732;51.472;6.466;2023-06-01T13:32:44;13.48;;;7.78;;
21148;SDS011;10732;51.472;6.466;2023-06-01T13:35:10;12.55;;;8.73;;
21148;SDS011;10732;51.472;6.466;2023-06-01T13:37:36;13.30;;;7.93;;
21148;SDS011;10732;51.472;6.466;2023-06-01T13:40:02;11.15;;;8.18;;
21148;SDS011;10732;51.472;6.466;2023-06-01T13:42:30;14.30;;;8.55;;
21148;SDS011;10732;51.472;6.466;2023-06-01T13:44:57;12.93;;;7.50;;
21148;SDS011;10732;51.472;6.466;2023-06-01T13:47:23;11.95;;;8.10;;
21148;SDS011;10732;51.472;6.466;2023-06-01T13:49:48;12.50;;;7.90;;
21148;SDS011;10732;51.472;6.466;2023-06-01T13:52:14;13.88;;;7.72;;
21148;SDS011;10732;51.472;6.466;2023-06-01T13:54:40;12.65;;;8.25;;
21148;SDS011;10732;51.472;6.466;2023-06-01T13:57:06;13.07;;;7.22;;
21148;SDS011;10732;51.472;6.466;2023-06-01T13:59:32;12.45;;;7.15;;
21148;SDS011;10732;51.472;6.466;2023-06-01T14:02:01;11.80;;;7.72;;
21148;SDS011;10732;51.472;6.466;2023-06-01T14:04:28;13.95;;;8.20;;
21148;SDS011;10732;51.472;6.466;2023-06-01T14:06:54;15.95;;;7.80;;
21148;SDS011;10732;51.472;6.466;2023-06-01T14:09:20;13.90;;;7.43;;
21148;SDS011;10732;51.472;6.466;2023-06-01T14:11:46;14.65;;;7.85;;
21148;SDS011;10732;51.472;6.466;2023-06-01T14:14:12;12.32;;;7.45;;
21148;SDS011;10732;51.472;6.466;2023-06-01T14:16:38;13.57;;;7.78;;
21148;SDS011;10732;51.472;6.466;2023-06-01T14:19:04;11.95;;;6.82;;
21148;SDS011;10732;51.472;6.466;2023-06-01T14:21:30;14.70;;;7.38;;
21148;SDS011;10732;51.472;6.466;2023-06-01T14:23:57;13.30;;;7.28;;
21148;SDS011;10732;51.472;6.466;2023-06-01T14:26:23;12.10;;;6.78;;
21148;SDS011;10732;51.472;6.466;2023-06-01T14:28:49;13.40;;;7.90;;
21148;SDS011;10732;51.472;6.466;2023-06-01T14:31:15;10.90;;;7.68;;
21148;SDS011;10732;51.472;6.466;2023-06-01T14:33:40;15.30;;;7.03;;
21148;SDS011;10732;51.472;6.466;2023-06-01T14:36:06;14.77;;;7.50;;
21148;SDS011;10732;51.472;6.466;2023-06-01T14:38:31;12.05;;;7.70;;
21148;SDS011;10732;51.472;6.466;2023-06-01T14:40:57;10.82;;;7.20;;
21148;SDS011;10732;51.472;6.466;2023-06-01T14:43:22;13.38;;;7.40;;
21148;SDS011;10732;51.472;6.466;2023-06-01T14:45:48;12.07;;;7.05;;
21148;SDS011;10732;51.472;6.466;2023-06-01T14:48:13;13.57;;;7.82;;
21148;SDS011;10732;51.472;6.466;2023-06-01T14:50:39;9.48;;;6.40;;
21148;SDS011;10732;51.472;6.466;2023-06-01T14:53:05;11.20;;;6.90;;
21148;SDS011;10732;51.472;6.466;2023-06-01T14:55:31;10.65;;;6.20;;
21148;SDS011;10732;51.472;6.466;2023-06-01T14:57:57;11.00;;;6.30;;
21148;SDS011;10732;51.472;6.466;2023-06-01T15:00:22;9.10;;;6.15;;
21148;SDS011;10732;51.472;6.466;2023-06-01T15:02:48;11.38;;;6.78;;
21148;SDS011;10732;51.472;6.466;2023-06-01T15:05:13;10.10;;;5.68;;
21148;SDS011;10732;51.472;6.466;2023-06-01T15:07:39;11.68;;;6.28;;
21148;SDS011;10732;51.472;6.466;2023-06-01T15:10:05;10.27;;;6.47;;
21148;SDS011;10732;51.472;6.466;2023-06-01T15:12:31;10.40;;;6.00;;
21148;SDS011;10732;51.472;6.466;2023-06-01T15:14:56;13.90;;;6.28;;
21148;SDS011;10732;51.472;6.466;2023-06-01T15:17:22;11.63;;;6.00;;
21148;SDS011;10732;51.472;6.466;2023-06-01T15:19:47;8.93;;;5.22;;